Time;durP1;ratioP1;P1;durP2;ratioP2;P2;SDS_P1;SDS_P2;PMS_P1;PMS_P2;Temp;Humidity;BMP_temperature;BMP_pressure;BME280_temperature;BME280_humidity;BME280_pressure;Samples;Min_cycle;Max_cycle;Signal;HPM_P1;HPM_P2
2022/04/22 00:02:12;;;;;;;17.85;5.38;;;;;;;;;;4939540;29;20198;-89
2022/04/22 00:04:39;;;;;;;10.57;5.10;;;;;;;;;;4942261;29;20051;-89
2022/04/22 00:07:06;;;;;;;12.82;5.22;;;;;;;;;;4949680;29;20380;-89
2022/04/22 00:09:34;;;;;;;13.30;5.50;;;;;;;;;;4939760;29;20133;-89
2022/04/22 00:12:01;;;;;;;17.95;5.55;;;;;;;;;;4939509;29;20055;-90
2022/04/22 00:14:28;;;;;;;14.43;5.32;;;;;;;;;;4956761;29;20437;-90
2022/04/22 00:16:55;;;;;;;20.92;5.68;;;;;;;;;;4939556;29;20464;-89
2022/04/22 00:19:22;;;;;;;14.35;5.25;;;;;;;;;;4938750;29;20047;-89
2022/04/22 00:21:50;;;;;;;12.63;4.43;;;;;;;;;;4937751;29;20070;-89
2022/04/22 00:24:17;;;;;;;12.45;4.95;;;;;;;;;;4938415;29;20075;-88
2022/04/22 00:26:44;;;;;;;11.25;5.15;;;;;;;;;;4937901;29;20062;-88
2022/04/22 00:29:11;;;;;;;18.17;5.35;;;;;;;;;;4944883;29;20082;-88
2022/04/22 00:31:39;;;;;;;13.55;5.30;;;;;;;;;;4951100;29;20051;-89
2022/04/22 00:34:07;;;;;;;16.80;4.68;;;;;;;;;;4953447;29;21780;-89
2022/04/22 00:36:34;;;;;;;13.05;5.00;;;;;;;;;;4947043;29;20047;-89
2022/04/22 00:39:05;;;;;;;12.98;4.93;;;;;;;;;;4949690;28;20050;-88
2022/04/22 00:41:32;;;;;;;12.00;4.80;;;;;;;;;;4938950;29;20493;-89
2022/04/22 00:43:59;;;;;;;11.18;5.03;;;;;;;;;;4955012;29;20102;-89
2022/04/22 00:46:27;;;;;;;13.25;4.78;;;;;;;;;;4943274;29;20119;-88
2022/04/22 00:48:54;;;;;;;12.63;5.13;;;;;;;;;;4937548;29;20051;-89
2022/04/22 00:51:22;;;;;;;15.70;5.30;;;;;;;;;;4954726;29;20051;-90
2022/04/22 00:53:51;;;;;;;17.55;5.88;;;;;;;;;;4937543;29;20219;-89
2022/04/22 00:56:18;;;;;;;17.25;5.43;;;;;;;;;;4949637;29;20112;-90
2022/04/22 00:58:47;;;;;;;13.95;4.93;;;;;;;;;;4936156;29;20080;-89
2022/04/22 01:01:14;;;;;;;21.05;4.85;;;;;;;;;;4939167;29;20071;-89
2022/04/22 01:12:01;;;;;;;16.25;5.47;;;;;;;;;;4939811;29;20082;-89
2022/04/22 01:14:28;;;;;;;20.75;6.28;;;;;;;;;;4937889;29;20071;-88
2022/04/22 01:16:56;;;;;;;20.45;5.30;;;;;;;;;;4937075;29;20126;-88
2022/04/22 01:19:23;;;;;;;17.52;5.38;;;;;;;;;;4936843;29;20082;-88
2022/04/22 01:21:50;;;;;;;15.85;5.60;;;;;;;;;;4936419;29;20134;-88
2022/04/22 01:24:17;;;;;;;13.75;5.75;;;;;;;;;;4936608;29;20047;-87
2022/04/22 01:26:45;;;;;;;15.98;5.38;;;;;;;;;;4937909;29;20075;-87
2022/04/22 01:29:14;;;;;;;14.75;5.60;;;;;;;;;;4917068;29;20528;-87
2022/04/22 01:31:45;;;;;;;27.13;7.90;;;;;;;;;;4930280;29;20093;-88
2022/04/22 01:34:13;;;;;;;20.83;5.85;;;;;;;;;;4950232;29;20082;-87
2022/04/22 01:36:40;;;;;;;15.25;5.50;;;;;;;;;;4937217;29;20062;-86
2022/04/22 01:39:08;;;;;;;17.60;5.72;;;;;;;;;;4939705;29;20063;-88
2022/04/22 01:41:35;;;;;;;14.90;5.55;;;;;;;;;;4948903;28;20196;-88
2022/04/22 01:44:03;;;;;;;11.02;5.05;;;;;;;;;;4936322;29;20622;-87
2022/04/22 01:46:30;;;;;;;13.55;5.32;;;;;;;;;;4953676;29;20102;-87
2022/04/22 01:48:58;;;;;;;17.27;5.43;;;;;;;;;;4936955;29;20062;-88
2022/04/22 01:51:25;;;;;;;19.75;5.10;;;;;;;;;;4954012;29;20067;-89
2022/04/22 01:53:52;;;;;;;18.85;4.82;;;;;;;;;;4950591;29;20496;-88
2022/04/22 01:56:21;;;;;;;16.85;4.95;;;;;;;;;;4938185;29;20126;-88
2022/04/22 01:58:48;;;;;;;16.05;6.63;;;;;;;;;;4953548;29;20047;-88
2022/04/22 02:01:16;;;;;;;18.48;5.30;;;;;;;;;;4949679;29;20086;-88
2022/04/22 02:03:43;;;;;;;33.35;5.38;;;;;;;;;;4940918;29;20848;-88
2022/04/22 02:06:10;;;;;;;13.65;5.50;;;;;;;;;;4953981;29;20503;-88
2022/04/22 02:08:38;;;;;;;22.55;7.93;;;;;;;;;;4954246;28;20508;-88
2022/04/22 02:11:05;;;;;;;14.05;5.88;;;;;;;;;;4941296;28;20058;-88
2022/04/22 02:13:36;;;;;;;18.02;5.80;;;;;;;;;;4938781;29;20146;-88
2022/04/22 02:16:05;;;;;;;16.83;6.03;;;;;;;;;;4937404;29;20117;-88
2022/04/22 02:18:36;;;;;;;19.88;5.63;;;;;;;;;;4938682;29;20060;-88
2022/04/22 02:21:04;;;;;;;14.48;5.57;;;;;;;;;;4944791;29;20078;-88
2022/04/22 02:23:31;;;;;;;20.38;5.25;;;;;;;;;;4957036;28;20047;-88
2022/04/22 02:25:59;;;;;;;14.80;5.50;;;;;;;;;;4955880;29;20097;-88
2022/04/22 02:28:32;;;;;;;17.23;6.25;;;;;;;;;;4946975;29;20563;-88
2022/04/22 02:31:00;;;;;;;12.05;4.85;;;;;;;;;;4939047;29;20744;-88
2022/04/22 02:33:27;;;;;;;15.50;5.45;;;;;;;;;;4955667;29;20540;-88
2022/04/22 02:35:54;;;;;;;15.30;5.63;;;;;;;;;;4952462;28;20043;-88
2022/04/22 02:38:22;;;;;;;21.42;6.28;;;;;;;;;;4950954;29;20060;-88
2022/04/22 02:46:20;;;;;;;23.60;6.00;;;;;;;;;;4944967;29;20512;-89
2022/04/22 02:48:48;;;;;;;19.70;5.50;;;;;;;;;;4936593;29;20091;-88
2022/04/22 02:51:15;;;;;;;20.48;5.97;;;;;;;;;;4936606;29;20139;-88
2022/04/22 02:53:43;;;;;;;15.48;5.00;;;;;;;;;;4936767;29;20082;-88
2022/04/22 02:56:11;;;;;;;12.40;5.32;;;;;;;;;;4943098;29;20055;-89
2022/04/22 02:58:40;;;;;;;23.13;6.13;;;;;;;;;;4955510;29;20047;-89
2022/04/22 03:01:07;;;;;;;20.88;5.75;;;;;;;;;;4939309;29;20047;-88
2022/04/22 03:03:34;;;;;;;24.50;5.80;;;;;;;;;;4939097;29;20062;-88
2022/04/22 03:06:02;;;;;;;20.25;6.40;;;;;;;;;;4938571;29;20478;-88
2022/04/22 03:08:30;;;;;;;30.10;5.95;;;;;;;;;;4956085;29;20082;-88
2022/04/22 03:10:57;;;;;;;17.17;5.55;;;;;;;;;;4933906;28;20059;-88
2022/04/22 03:13:24;;;;;;;23.27;6.82;;;;;;;;;;4943306;29;20078;-88
2022/04/22 03:15:51;;;;;;;30.75;9.00;;;;;;;;;;4938932;29;20747;-89
2022/04/22 03:18:19;;;;;;;20.92;5.60;;;;;;;;;;4939271;29;20075;-88
2022/04/22 03:20:46;;;;;;;18.30;5.97;;;;;;;;;;4956038;29;20047;-88
2022/04/22 03:23:13;;;;;;;28.45;5.85;;;;;;;;;;4949379;29;20062;-88
2022/04/22 03:25:41;;;;;;;18.20;6.50;;;;;;;;;;4939675;29;20051;-88
2022/04/22 03:28:08;;;;;;;15.48;5.97;;;;;;;;;;4939886;28;20122;-88
2022/04/22 03:30:37;;;;;;;20.17;6.68;;;;;;;;;;4938847;29;20059;-88
2022/04/22 03:33:05;;;;;;;16.92;6.00;;;;;;;;;;4939337;29;20062;-88
2022/04/22 03:35:32;;;;;;;22.63;7.38;;;;;;;;;;4935662;29;20075;-88
2022/04/22 03:38:00;;;;;;;23.80;7.47;;;;;;;;;;4951927;29;20083;-87
2022/04/22 03:40:27;;;;;;;18.77;7.85;;;;;;;;;;4939083;29;20106;-88
2022/04/22 03:42:54;;;;;;;26.08;7.22;;;;;;;;;;4940261;29;20055;-88
2022/04/22 03:45:22;;;;;;;26.42;7.80;;;;;;;;;;4939693;29;20094;-88
2022/04/22 03:47:49;;;;;;;28.40;8.45;;;;;;;;;;4949680;29;20081;-87
2022/04/22 03:50:16;;;;;;;24.20;8.00;;;;;;;;;;4956262;29;20879;-88
2022/04/22 03:52:43;;;;;;;30.75;8.88;;;;;;;;;;4939133;29;20489;-88
2022/04/22 03:55:11;;;;;;;21.65;8.38;;;;;;;;;;4948691;29;20063;-88
2022/04/22 04:00:24;;;;;;;31.98;8.63;;;;;;;;;;4956555;29;20055;-87
2022/04/22 04:02:51;;;;;;;23.10;8.18;;;;;;;;;;4939243;29;20477;-88
2022/04/22 04:05:19;;;;;;;28.40;10.32;;;;;;;;;;4956905;29;20653;-88
2022/04/22 04:07:46;;;;;;;27.42;9.40;;;;;;;;;;4948903;29;20062;-89
2022/04/22 04:16:03;;;;;;;28.65;9.98;;;;;;;;;;4950052;29;20051;-88
2022/04/22 04:18:38;;;;;;;29.70;10.70;;;;;;;;;;4940107;29;20055;-88
2022/04/22 04:23:52;;;;;;;32.40;10.57;;;;;;;;;;4956595;29;20135;-88
2022/04/22 04:26:21;;;;;;;25.38;10.18;;;;;;;;;;4959412;28;20130;-88
2022/04/22 04:28:50;;;;;;;30.80;10.25;;;;;;;;;;4939265;29;20134;-88
2022/04/22 04:31:18;;;;;;;28.75;11.23;;;;;;;;;;4956066;29;20087;-88
2022/04/22 04:33:46;;;;;;;30.48;10.63;;;;;;;;;;4939726;29;20057;-88
2022/04/22 04:36:16;;;;;;;27.63;11.85;;;;;;;;;;4944815;29;20069;-86
2022/04/22 04:38:43;;;;;;;28.83;10.95;;;;;;;;;;4936452;28;20043;-87
2022/04/22 04:41:13;;;;;;;32.17;10.55;;;;;;;;;;4935170;29;20106;-86
2022/04/22 04:43:41;;;;;;;36.67;11.40;;;;;;;;;;4933953;29;20043;-86
2022/04/22 04:46:08;;;;;;;34.13;10.68;;;;;;;;;;4933610;29;20390;-86
2022/04/22 04:48:36;;;;;;;27.67;11.25;;;;;;;;;;4944465;29;20493;-86
2022/04/22 04:51:04;;;;;;;34.92;11.85;;;;;;;;;;4944577;29;20517;-87
2022/04/22 04:53:31;;;;;;;24.60;10.85;;;;;;;;;;4937442;29;20114;-85
2022/04/22 04:55:59;;;;;;;28.00;9.55;;;;;;;;;;4954313;29;20605;-87
2022/04/22 04:58:26;;;;;;;26.88;10.90;;;;;;;;;;4944199;29;20501;-85
2022/04/22 05:00:53;;;;;;;31.08;10.85;;;;;;;;;;4938969;29;20181;-87
2022/04/22 05:03:21;;;;;;;29.90;10.50;;;;;;;;;;4944700;29;20047;-87
2022/04/22 05:05:48;;;;;;;32.05;11.35;;;;;;;;;;4956622;29;20079;-86
2022/04/22 05:08:15;;;;;;;23.02;10.38;;;;;;;;;;4943161;29;20082;-86
2022/04/22 05:10:42;;;;;;;34.10;10.80;;;;;;;;;;4944275;29;20060;-85
2022/04/22 05:13:10;;;;;;;26.90;10.27;;;;;;;;;;4939758;29;20055;-86
2022/04/22 05:15:39;;;;;;;35.80;12.38;;;;;;;;;;4942163;29;20083;-86
2022/04/22 05:18:06;;;;;;;28.80;10.55;;;;;;;;;;4958471;29;20523;-87
2022/04/22 05:20:33;;;;;;;32.40;11.68;;;;;;;;;;4944494;29;20043;-87
2022/04/22 05:23:01;;;;;;;25.50;10.13;;;;;;;;;;4937053;29;20559;-87
2022/04/22 05:25:29;;;;;;;35.17;9.90;;;;;;;;;;4948518;29;20116;-86
2022/04/22 05:27:56;;;;;;;24.40;10.57;;;;;;;;;;4959883;29;20055;-86
2022/04/22 05:33:10;;;;;;;25.48;10.02;;;;;;;;;;4954672;29;20051;-86
2022/04/22 05:35:37;;;;;;;35.00;10.52;;;;;;;;;;4936025;29;20091;-87
2022/04/22 05:38:05;;;;;;;19.23;9.15;;;;;;;;;;4954390;28;20449;-87
2022/04/22 05:40:36;;;;;;;28.45;9.90;;;;;;;;;;4952518;29;20122;-87
2022/04/22 05:43:05;;;;;;;28.00;9.95;;;;;;;;;;4955584;29;20141;-88
2022/04/22 05:45:34;;;;;;;25.17;9.27;;;;;;;;;;4952007;29;20445;-87
2022/04/22 05:48:01;;;;;;;28.55;10.10;;;;;;;;;;4937659;29;20055;-86
2022/04/22 05:50:29;;;;;;;20.73;9.73;;;;;;;;;;4936204;29;20106;-86
2022/04/22 05:52:56;;;;;;;28.58;9.48;;;;;;;;;;4955627;28;20484;-87
2022/04/22 05:55:24;;;;;;;20.58;9.57;;;;;;;;;;4940765;29;20545;-86
2022/04/22 05:57:53;;;;;;;27.00;9.40;;;;;;;;;;4940674;29;20444;-87
2022/04/22 06:00:22;;;;;;;26.20;9.52;;;;;;;;;;4940909;29;20500;-87
2022/04/22 06:02:49;;;;;;;26.10;10.38;;;;;;;;;;4957662;29;20083;-87
2022/04/22 06:05:18;;;;;;;30.98;11.02;;;;;;;;;;4940670;29;20129;-87
2022/04/22 06:07:45;;;;;;;27.98;10.15;;;;;;;;;;4957664;28;20093;-87
2022/04/22 06:10:31;;;;;;;24.70;9.82;;;;;;;;;;4940641;29;20059;-87
2022/04/22 06:12:59;;;;;;;28.27;10.85;;;;;;;;;;4951763;29;20086;-87
2022/04/22 06:15:27;;;;;;;37.22;9.60;;;;;;;;;;4950601;29;20153;-86
2022/04/22 06:17:54;;;;;;;27.92;10.88;;;;;;;;;;4940139;29;20075;-86
2022/04/22 06:20:21;;;;;;;21.98;9.27;;;;;;;;;;4943842;29;20051;-86
2022/04/22 06:22:49;;;;;;;21.02;8.85;;;;;;;;;;4957441;29;20059;-86
2022/04/22 06:25:16;;;;;;;24.73;8.93;;;;;;;;;;4943800;29;20575;-87
2022/04/22 06:27:44;;;;;;;27.65;9.55;;;;;;;;;;4941564;29;20047;-87
2022/04/22 06:30:19;;;;;;;25.90;9.23;;;;;;;;;;4957462;29;20089;-87
2022/04/22 06:32:47;;;;;;;29.35;9.50;;;;;;;;;;4943416;29;20066;-86
2022/04/22 06:35:15;;;;;;;21.98;9.05;;;;;;;;;;4956567;29;20090;-87
2022/04/22 06:37:47;;;;;;;23.13;9.32;;;;;;;;;;4953727;29;20079;-86
2022/04/22 06:45:47;;;;;;;31.10;9.93;;;;;;;;;;4950783;29;20662;-86
2022/04/22 06:48:14;;;;;;;36.33;10.45;;;;;;;;;;4956841;29;20646;-86
2022/04/22 06:51:06;;;;;;;27.75;8.73;;;;;;;;;;4943077;29;20138;-86
2022/04/22 06:53:34;;;;;;;19.27;8.77;;;;;;;;;;4940147;29;20058;-87
2022/04/22 06:56:02;;;;;;;20.55;8.82;;;;;;;;;;4953640;29;20051;-87
2022/04/22 06:58:37;;;;;;;29.65;10.20;;;;;;;;;;4941782;29;20050;-86
2022/04/22 07:01:06;;;;;;;25.30;8.55;;;;;;;;;;4956419;29;20051;-86
2022/04/22 07:03:54;;;;;;;23.30;8.13;;;;;;;;;;4941751;29;20051;-86
2022/04/22 07:06:21;;;;;;;22.50;8.70;;;;;;;;;;4943279;29;20556;-87
2022/04/22 07:08:49;;;;;;;26.75;8.88;;;;;;;;;;4939964;29;20135;-86
2022/04/22 07:11:20;;;;;;;20.33;7.95;;;;;;;;;;4930222;29;20059;-87
2022/04/22 07:13:48;;;;;;;22.52;8.50;;;;;;;;;;4945422;28;20079;-87
2022/04/22 07:16:17;;;;;;;23.50;8.88;;;;;;;;;;4952040;28;20150;-86
2022/04/22 07:18:45;;;;;;;21.25;8.65;;;;;;;;;;4955583;28;20492;-86
2022/04/22 07:21:13;;;;;;;30.20;9.43;;;;;;;;;;4941165;29;20097;-86
2022/04/22 07:23:40;;;;;;;23.60;9.25;;;;;;;;;;4924288;29;20059;-86
2022/04/22 07:26:09;;;;;;;23.33;8.40;;;;;;;;;;4954501;28;20048;-86
2022/04/22 07:28:38;;;;;;;23.60;10.35;;;;;;;;;;4953042;28;20052;-87
2022/04/22 07:31:09;;;;;;;33.75;9.25;;;;;;;;;;4950978;28;20058;-87
2022/04/22 07:33:36;;;;;;;26.65;8.55;;;;;;;;;;4951736;29;20185;-87
2022/04/22 07:36:04;;;;;;;25.73;8.82;;;;;;;;;;4959151;28;20093;-87
2022/04/22 07:38:31;;;;;;;22.38;8.40;;;;;;;;;;4942608;29;20109;-86
2022/04/22 07:40:58;;;;;;;29.85;8.77;;;;;;;;;;4951306;29;20044;-86
2022/04/22 07:48:58;;;;;;;25.60;9.20;;;;;;;;;;4957107;29;20062;-87
2022/04/22 07:51:26;;;;;;;26.08;8.95;;;;;;;;;;4938734;29;20492;-87
2022/04/22 07:53:55;;;;;;;19.30;8.20;;;;;;;;;;4939200;29;20066;-88
2022/04/22 07:56:23;;;;;;;20.90;8.27;;;;;;;;;;4952654;29;20055;-87
2022/04/22 07:58:50;;;;;;;30.23;7.90;;;;;;;;;;4954876;29;20474;-88
2022/04/22 08:01:18;;;;;;;24.17;8.05;;;;;;;;;;4954430;29;20071;-88
2022/04/22 08:03:46;;;;;;;28.50;7.90;;;;;;;;;;4949585;29;20039;-88
2022/04/22 08:06:13;;;;;;;21.73;8.10;;;;;;;;;;4922547;29;20051;-88
2022/04/22 08:08:40;;;;;;;17.65;6.95;;;;;;;;;;4954986;29;20051;-88
2022/04/22 08:11:08;;;;;;;15.23;6.65;;;;;;;;;;4936402;29;20062;-88
2022/04/22 08:13:35;;;;;;;15.70;6.75;;;;;;;;;;4936647;29;20066;-88
2022/04/22 08:16:03;;;;;;;18.08;6.93;;;;;;;;;;4932768;29;20087;-88
2022/04/22 08:18:30;;;;;;;30.10;8.63;;;;;;;;;;4945001;29;20402;-88
2022/04/22 08:20:58;;;;;;;23.83;7.47;;;;;;;;;;4940036;29;20130;-88
2022/04/22 08:23:25;;;;;;;51.22;24.42;;;;;;;;;;4937127;29;20102;-88
2022/04/22 08:25:52;;;;;;;18.23;6.50;;;;;;;;;;4948690;28;20117;-88
2022/04/22 08:28:20;;;;;;;24.70;6.53;;;;;;;;;;4962863;28;20114;-89
2022/04/22 08:30:47;;;;;;;25.30;7.35;;;;;;;;;;4942845;29;20047;-87
2022/04/22 08:33:16;;;;;;;27.85;6.63;;;;;;;;;;4953473;29;20555;-87
2022/04/22 08:35:43;;;;;;;23.45;6.35;;;;;;;;;;4954274;28;20344;-88
2022/04/22 08:38:10;;;;;;;23.48;7.70;;;;;;;;;;4928305;29;20058;-87
2022/04/22 08:40:38;;;;;;;23.48;7.00;;;;;;;;;;4967775;28;20078;-89
2022/04/22 08:43:12;;;;;;;28.23;7.45;;;;;;;;;;4952241;29;20094;-88
2022/04/22 08:45:40;;;;;;;18.05;6.68;;;;;;;;;;4923570;29;20485;-88
2022/04/22 08:50:55;;;;;;;19.30;7.00;;;;;;;;;;4951369;29;20138;-88
2022/04/22 08:53:26;;;;;;;18.40;7.10;;;;;;;;;;4939477;29;20059;-89
2022/04/22 08:55:57;;;;;;;20.63;6.43;;;;;;;;;;4935643;29;20051;-87
2022/04/22 08:58:27;;;;;;;29.13;6.80;;;;;;;;;;4953258;29;20055;-87
2022/04/22 09:00:59;;;;;;;34.45;7.30;;;;;;;;;;4937442;29;20066;-88
2022/04/22 09:03:27;;;;;;;18.45;7.63;;;;;;;;;;4938528;29;20074;-88
2022/04/22 09:05:58;;;;;;;16.55;7.13;;;;;;;;;;4937809;29;20771;-89
2022/04/22 09:08:26;;;;;;;15.27;6.80;;;;;;;;;;4940786;28;20088;-88
2022/04/22 09:10:57;;;;;;;18.88;6.45;;;;;;;;;;4954296;28;20055;-88
2022/04/22 09:13:27;;;;;;;15.30;5.88;;;;;;;;;;4939905;28;20057;-88
2022/04/22 09:15:58;;;;;;;26.67;7.60;;;;;;;;;;4945572;29;20047;-88
2022/04/22 09:18:39;;;;;;;76.78;14.30;;;;;;;;;;4939199;29;20051;-86
2022/04/22 09:21:13;;;;;;;13.60;5.68;;;;;;;;;;4936621;29;20393;-87
2022/04/22 09:23:41;;;;;;;17.58;5.72;;;;;;;;;;4953350;29;20612;-87
2022/04/22 09:26:19;;;;;;;17.67;5.68;;;;;;;;;;4950498;28;20055;-88
2022/04/22 09:29:03;;;;;;;17.30;6.40;;;;;;;;;;4944765;29;20106;-87
2022/04/22 09:31:30;;;;;;;23.27;6.13;;;;;;;;;;4953646;29;20059;-87
2022/04/22 09:33:58;;;;;;;17.85;6.50;;;;;;;;;;4945742;29;20130;-88
2022/04/22 09:44:52;;;;;;;18.00;6.43;;;;;;;;;;4947968;29;20149;-86
2022/04/22 09:47:20;;;;;;;14.48;5.88;;;;;;;;;;4939736;29;20090;-85
2022/04/22 09:49:47;;;;;;;16.83;6.50;;;;;;;;;;4953744;29;20110;-87
2022/04/22 09:52:14;;;;;;;16.50;6.10;;;;;;;;;;4953946;29;20075;-87
2022/04/22 09:54:55;;;;;;;14.02;5.30;;;;;;;;;;4953278;29;20079;-88
2022/04/22 09:57:52;;;;;;;14.82;5.75;;;;;;;;;;4952697;28;20110;-87
2022/04/22 10:00:30;;;;;;;11.88;4.97;;;;;;;;;;4931882;29;20456;-88
2022/04/22 10:02:58;;;;;;;14.65;5.60;;;;;;;;;;4937425;29;20054;-88
2022/04/22 10:05:26;;;;;;;8.98;4.90;;;;;;;;;;4952225;28;20094;-87
2022/04/22 10:07:55;;;;;;;11.52;5.03;;;;;;;;;;4936029;29;20095;-87
2022/04/22 10:10:32;;;;;;;22.58;5.53;;;;;;;;;;4933792;29;20055;-87
2022/04/22 10:13:01;;;;;;;14.38;4.75;;;;;;;;;;4953403;28;20051;-87
2022/04/22 10:15:30;;;;;;;13.65;5.00;;;;;;;;;;4947190;29;20054;-88
2022/04/22 10:17:57;;;;;;;10.27;4.75;;;;;;;;;;4961396;28;20083;-87
2022/04/22 10:20:25;;;;;;;17.13;4.75;;;;;;;;;;4947814;29;20851;-88
2022/04/22 10:22:52;;;;;;;17.23;6.18;;;;;;;;;;4934685;29;20054;-87
2022/04/22 10:25:20;;;;;;;19.70;5.60;;;;;;;;;;4952071;29;20051;-87
2022/04/22 10:27:47;;;;;;;13.23;5.35;;;;;;;;;;4953025;29;20063;-87
2022/04/22 10:30:16;;;;;;;13.90;5.60;;;;;;;;;;4953559;29;20054;-87
2022/04/22 10:32:45;;;;;;;11.23;5.25;;;;;;;;;;4952901;29;20082;-87
2022/04/22 10:35:14;;;;;;;12.25;5.22;;;;;;;;;;4949783;29;20098;-87
2022/04/22 10:37:41;;;;;;;15.13;4.80;;;;;;;;;;4954528;28;20515;-87
2022/04/22 10:40:29;;;;;;;11.77;5.00;;;;;;;;;;4952140;28;21459;-88
2022/04/22 10:42:58;;;;;;;13.40;5.40;;;;;;;;;;4937586;29;20043;-87
2022/04/22 10:48:26;;;;;;;11.75;5.10;;;;;;;;;;4953980;29;20444;-87
2022/04/22 10:51:13;;;;;;;18.23;5.85;;;;;;;;;;4956532;29;20129;-87
2022/04/22 10:53:47;;;;;;;10.25;4.82;;;;;;;;;;4936908;29;20062;-87
2022/04/22 10:56:26;;;;;;;27.30;5.90;;;;;;;;;;4939181;29;20059;-87
2022/04/22 10:59:12;;;;;;;11.30;5.07;;;;;;;;;;4955202;29;20051;-88
2022/04/22 11:01:40;;;;;;;11.82;4.88;;;;;;;;;;4956531;29;20129;-87
2022/04/22 11:04:23;;;;;;;8.30;5.30;;;;;;;;;;4944113;29;20441;-87
2022/04/22 11:06:50;;;;;;;8.00;4.57;;;;;;;;;;4952993;29;20724;-87
2022/04/22 11:09:27;;;;;;;10.65;4.90;;;;;;;;;;4938380;29;20047;-88
2022/04/22 11:11:55;;;;;;;10.65;4.72;;;;;;;;;;4953336;28;20748;-88
2022/04/22 11:14:23;;;;;;;10.52;4.32;;;;;;;;;;4937540;29;20087;-88
2022/04/22 11:16:51;;;;;;;10.13;4.00;;;;;;;;;;4951505;29;20137;-88
2022/04/22 11:19:18;;;;;;;18.55;4.68;;;;;;;;;;4955968;29;20082;-88
2022/04/22 11:21:46;;;;;;;7.38;4.03;;;;;;;;;;4938264;29;20408;-88
2022/04/22 11:24:20;;;;;;;10.80;3.90;;;;;;;;;;4923828;29;20102;-88
2022/04/22 11:26:48;;;;;;;9.25;4.07;;;;;;;;;;4936078;29;20130;-88
2022/04/22 11:29:16;;;;;;;11.57;4.15;;;;;;;;;;4954391;29;20047;-88
2022/04/22 11:31:57;;;;;;;8.65;4.63;;;;;;;;;;4953991;28;20039;-88
2022/04/22 11:34:34;;;;;;;9.85;3.63;;;;;;;;;;4945225;29;20761;-88
2022/04/22 11:37:01;;;;;;;8.55;3.50;;;;;;;;;;4955604;29;20101;-88
2022/04/22 11:39:28;;;;;;;9.02;3.63;;;;;;;;;;4944471;29;20208;-88
2022/04/22 11:41:59;;;;;;;7.00;3.38;;;;;;;;;;4954931;29;20374;-88
2022/04/22 11:44:26;;;;;;;13.50;3.83;;;;;;;;;;4937942;29;20112;-88
2022/04/22 11:46:54;;;;;;;8.07;3.72;;;;;;;;;;4941457;29;20051;-88
2022/04/22 11:49:22;;;;;;;12.20;3.85;;;;;;;;;;4934641;28;20480;-84
2022/04/22 11:51:53;;;;;;;7.65;3.45;;;;;;;;;;4953306;29;20461;-88
2022/04/22 11:54:24;;;;;;;14.02;4.10;;;;;;;;;;4954961;29;20326;-88
2022/04/22 11:56:52;;;;;;;8.35;3.42;;;;;;;;;;4943918;29;20851;-88
2022/04/22 11:59:20;;;;;;;9.40;3.55;;;;;;;;;;4937666;29;20055;-88
2022/04/22 12:05:32;;;;;;;14.77;3.67;;;;;;;;;;4949124;28;20473;-88
2022/04/22 12:10:18;;;;;;;10.55;3.30;;;;;;;;;;4946886;29;20083;-89
2022/04/22 12:12:48;;;;;;;7.43;3.90;;;;;;;;;;4927849;29;20091;-89
2022/04/22 12:15:17;;;;;;;7.38;3.60;;;;;;;;;;4937816;29;20534;-88
2022/04/22 12:17:45;;;;;;;10.55;4.00;;;;;;;;;;4929429;29;20595;-89
2022/04/22 12:20:14;;;;;;;9.55;3.97;;;;;;;;;;4955016;29;20787;-89
2022/04/22 12:22:41;;;;;;;22.25;4.03;;;;;;;;;;4940271;29;20078;-89
2022/04/22 12:25:09;;;;;;;11.15;4.03;;;;;;;;;;4938025;29;20055;-89
2022/04/22 12:27:37;;;;;;;8.07;3.53;;;;;;;;;;4939146;29;20047;-90
2022/04/22 12:30:05;;;;;;;15.07;4.00;;;;;;;;;;4936061;29;20394;-90
2022/04/22 12:32:33;;;;;;;16.15;4.53;;;;;;;;;;4916666;29;20071;-89
2022/04/22 12:35:29;;;;;;;9.27;3.80;;;;;;;;;;4939760;29;20200;-87
2022/04/22 12:37:57;;;;;;;7.05;3.63;;;;;;;;;;4926091;29;20083;-87
2022/04/22 12:40:26;;;;;;;26.58;4.85;;;;;;;;;;4933971;29;20081;-89
2022/04/22 12:42:54;;;;;;;13.45;5.43;;;;;;;;;;4952691;29;20051;-89
2022/04/22 12:53:50;;;;;;;25.02;4.80;;;;;;;;;;4951215;29;20058;-89
2022/04/22 12:56:17;;;;;;;8.13;4.07;;;;;;;;;;4936001;29;20047;-90
2022/04/22 12:58:51;;;;;;;14.02;4.93;;;;;;;;;;4952047;29;20135;-88
2022/04/22 13:01:40;;;;;;;15.18;4.60;;;;;;;;;;4928386;29;20079;-88
2022/04/22 13:04:08;;;;;;;7.72;3.88;;;;;;;;;;4915973;29;20525;-89
2022/04/22 13:06:43;;;;;;;11.57;4.60;;;;;;;;;;4934760;29;20114;-88
2022/04/22 13:09:11;;;;;;;14.70;5.38;;;;;;;;;;4926497;29;20059;-88
2022/04/22 13:11:46;;;;;;;16.35;4.90;;;;;;;;;;4952254;29;20082;-88
2022/04/22 13:14:13;;;;;;;12.50;4.43;;;;;;;;;;4952522;29;20453;-88
2022/04/22 13:16:41;;;;;;;11.77;4.68;;;;;;;;;;4934978;28;20110;-88
2022/04/22 13:19:14;;;;;;;18.55;4.55;;;;;;;;;;4941068;29;20452;-87
2022/04/22 13:21:41;;;;;;;8.32;4.32;;;;;;;;;;4932831;29;20063;-90
2022/04/22 13:24:09;;;;;;;26.30;6.90;;;;;;;;;;4959443;28;20063;-88
2022/04/22 13:26:37;;;;;;;14.52;4.80;;;;;;;;;;4946767;29;20489;-89
2022/04/22 13:29:05;;;;;;;53.78;9.48;;;;;;;;;;4951714;29;20047;-88
2022/04/22 13:31:33;;;;;;;11.90;5.03;;;;;;;;;;4939029;29;20583;-87
2022/04/22 13:34:02;;;;;;;17.50;5.30;;;;;;;;;;4959011;28;20059;-90
2022/04/22 13:36:30;;;;;;;19.42;5.32;;;;;;;;;;4937423;29;20083;-90
2022/04/22 13:38:57;;;;;;;16.30;8.00;;;;;;;;;;4935285;29;20051;-90
2022/04/22 13:41:25;;;;;;;8.80;3.88;;;;;;;;;;4936547;29;20157;-90
2022/04/22 13:43:52;;;;;;;10.70;3.58;;;;;;;;;;4939333;29;20063;-93
2022/04/22 13:54:38;;;;;;;11.15;3.72;;;;;;;;;;4954624;29;20102;-89
2022/04/22 13:57:06;;;;;;;10.88;4.15;;;;;;;;;;4936168;29;20055;-89
2022/04/22 13:59:33;;;;;;;16.33;4.30;;;;;;;;;;4946431;29;20642;-88
2022/04/22 14:02:01;;;;;;;6.43;4.25;;;;;;;;;;4937895;29;20047;-89
2022/04/22 14:04:30;;;;;;;12.02;4.70;;;;;;;;;;4954317;28;20051;-88
2022/04/22 14:06:57;;;;;;;9.90;4.57;;;;;;;;;;4936712;29;20047;-89
2022/04/22 14:09:24;;;;;;;7.60;3.97;;;;;;;;;;4953203;29;20083;-89
2022/04/22 14:11:56;;;;;;;5.82;3.63;;;;;;;;;;4942166;29;20054;-89
2022/04/22 14:14:25;;;;;;;4.43;3.60;;;;;;;;;;4938080;29;20493;-89
2022/04/22 14:16:53;;;;;;;5.90;3.58;;;;;;;;;;4966261;28;20130;-90
2022/04/22 14:19:22;;;;;;;16.20;3.78;;;;;;;;;;4940670;29;20043;-89
2022/04/22 14:21:49;;;;;;;5.68;3.78;;;;;;;;;;4937417;29;20094;-89
2022/04/22 14:24:16;;;;;;;8.02;3.83;;;;;;;;;;4939135;29;20067;-89
2022/04/22 14:26:44;;;;;;;8.77;3.45;;;;;;;;;;4966951;28;20089;-87
2022/04/22 14:29:31;;;;;;;9.43;5.03;;;;;;;;;;4936175;29;20141;-87
2022/04/22 14:31:59;;;;;;;9.60;4.50;;;;;;;;;;4939577;29;20063;-88
2022/04/22 14:34:26;;;;;;;11.60;3.67;;;;;;;;;;4937680;29;20047;-88
2022/04/22 14:36:57;;;;;;;7.45;4.30;;;;;;;;;;4953509;29;20059;-88
2022/04/22 14:39:35;;;;;;;8.63;4.55;;;;;;;;;;4953659;28;20102;-87
2022/04/22 14:42:06;;;;;;;10.85;5.25;;;;;;;;;;4930923;29;20499;-88
2022/04/22 14:44:33;;;;;;;12.45;5.10;;;;;;;;;;4955696;28;20150;-87
2022/04/22 14:47:02;;;;;;;10.38;5.25;;;;;;;;;;4930915;29;20043;-86
2022/04/22 14:49:32;;;;;;;9.88;4.43;;;;;;;;;;4933496;29;20426;-86
2022/04/22 14:52:00;;;;;;;13.02;5.45;;;;;;;;;;4932857;29;20158;-86
2022/04/22 14:54:28;;;;;;;12.57;6.35;;;;;;;;;;4933571;28;20055;-86
2022/04/22 14:56:55;;;;;;;15.90;6.57;;;;;;;;;;4932274;29;20118;-87
2022/04/22 14:59:25;;;;;;;17.30;6.43;;;;;;;;;;4952303;29;20060;-86
2022/04/22 15:01:53;;;;;;;15.95;6.93;;;;;;;;;;4929208;29;20536;-87
2022/04/22 15:04:23;;;;;;;9.32;6.28;;;;;;;;;;4935083;29;20075;-87
2022/04/22 15:06:53;;;;;;;13.18;5.75;;;;;;;;;;4958294;28;20047;-87
2022/04/22 15:09:20;;;;;;;12.93;5.97;;;;;;;;;;4947812;28;20051;-86
2022/04/22 15:11:47;;;;;;;11.13;6.18;;;;;;;;;;4931492;29;20063;-87
2022/04/22 15:14:14;;;;;;;17.45;5.85;;;;;;;;;;4935775;29;20140;-86
2022/04/22 15:16:42;;;;;;;10.90;6.38;;;;;;;;;;4956791;28;20106;-87
2022/04/22 15:24:40;;;;;;;;;;;;;;;;;;4947952;28;20488;-87
2022/04/22 15:27:09;;;;;;;13.43;6.20;;;;;;;;;;4954949;28;19930;-86
2022/04/22 15:29:42;;;;;;;13.73;6.38;;;;;;;;;;4951575;28;20484;-87
2022/04/22 15:32:09;;;;;;;19.17;6.15;;;;;;;;;;4934275;29;20063;-86
2022/04/22 15:34:37;;;;;;;12.75;5.43;;;;;;;;;;4932003;29;20698;-86
2022/04/22 15:37:04;;;;;;;11.93;6.40;;;;;;;;;;4933492;29;20402;-86
2022/04/22 15:39:32;;;;;;;9.10;5.72;;;;;;;;;;4930981;28;20059;-86
2022/04/22 15:42:00;;;;;;;17.77;5.63;;;;;;;;;;4932035;29;20047;-87
2022/04/22 15:44:29;;;;;;;15.55;4.85;;;;;;;;;;4935146;29;20127;-86
2022/04/22 15:46:57;;;;;;;11.43;4.75;;;;;;;;;;4953669;28;20050;-87
2022/04/22 15:49:24;;;;;;;9.77;4.75;;;;;;;;;;4957801;28;20485;-87
2022/04/22 15:51:55;;;;;;;11.98;5.40;;;;;;;;;;4955322;28;20449;-87
2022/04/22 15:54:23;;;;;;;11.75;5.05;;;;;;;;;;4935278;28;20453;-86
2022/04/22 15:56:50;;;;;;;12.30;5.15;;;;;;;;;;4935295;29;20351;-87
2022/04/22 15:59:18;;;;;;;10.15;5.57;;;;;;;;;;4933368;29;20055;-86
2022/04/22 16:01:45;;;;;;;14.45;4.78;;;;;;;;;;4935912;29;20102;-87
2022/04/22 16:04:13;;;;;;;10.10;4.53;;;;;;;;;;4949028;29;20107;-86